createdAt,value
2018-09-10T00:00:43.556Z,9.40
2018-09-10T00:03:11.860Z,9.53
2018-09-10T00:05:40.236Z,9.07
2018-09-10T00:08:09.233Z,8.50
2018-09-10T00:10:37.412Z,8.90
2018-09-10T00:13:05.940Z,9.80
2018-09-10T00:15:34.017Z,9.63
2018-09-10T00:18:05.916Z,9.77
2018-09-10T00:20:34.458Z,9.00
2018-09-10T00:23:02.688Z,8.63
2018-09-10T00:25:30.653Z,9.70
2018-09-10T00:27:58.647Z,12.67
2018-09-10T00:30:26.652Z,8.47
2018-09-10T00:32:54.744Z,8.83
2018-09-10T00:35:22.898Z,7.97
2018-09-10T00:37:51.001Z,8.90
2018-09-10T00:40:19.271Z,8.37
2018-09-10T00:42:47.463Z,8.90
2018-09-10T00:45:15.688Z,8.23
2018-09-10T00:47:43.946Z,8.20
2018-09-10T00:50:13.234Z,7.93
2018-09-10T00:52:41.670Z,7.90
2018-09-10T00:55:10.558Z,9.20
2018-09-10T00:57:38.981Z,7.10
2018-09-10T01:00:07.505Z,6.83
2018-09-10T01:02:35.634Z,8.00
2018-09-10T01:05:03.924Z,7.30
2018-09-10T01:07:32.370Z,8.93
2018-09-10T01:10:00.333Z,6.63
2018-09-10T01:12:28.280Z,9.17
2018-09-10T01:14:56.346Z,7.37
2018-09-10T01:17:24.361Z,8.10
2018-09-10T01:19:53.047Z,8.37
2018-09-10T01:22:21.023Z,6.97
2018-09-10T01:24:49.056Z,7.60
2018-09-10T01:27:17.264Z,7.20
2018-09-10T01:29:45.510Z,7.50
2018-09-10T01:32:13.729Z,6.53
2018-09-10T01:34:47.096Z,8.10
2018-09-10T01:37:15.280Z,7.40
2018-09-10T01:39:43.704Z,7.20
2018-09-10T01:42:12.008Z,11.50
2018-09-10T01:44:40.495Z,8.13
2018-09-10T01:47:08.883Z,7.67
2018-09-10T01:49:36.986Z,7.67
2018-09-10T01:52:05.227Z,7.80
2018-09-10T01:54:33.510Z,8.27
2018-09-10T01:57:01.449Z,7.80
2018-09-10T01:59:29.435Z,8.30
2018-09-10T02:01:57.379Z,8.30
2018-09-10T02:04:25.366Z,6.60
2018-09-10T02:06:53.399Z,6.60
2018-09-10T02:09:21.412Z,7.70
2018-09-10T02:11:49.605Z,8.00
2018-09-10T02:14:17.715Z,8.47
2018-09-10T02:16:45.894Z,7.63
2018-09-10T02:19:14.146Z,8.43
2018-09-10T02:21:42.673Z,7.50
2018-09-10T02:24:11.046Z,7.93
2018-09-10T02:26:39.347Z,7.80
2018-09-10T02:29:07.723Z,6.87
2018-09-10T02:31:35.972Z,7.57
2018-09-10T02:34:04.168Z,9.50
2018-09-10T02:36:32.320Z,7.93
2018-09-10T02:39:00.313Z,8.30
2018-09-10T02:41:28.300Z,9.00
2018-09-10T02:43:56.282Z,7.87
2018-09-10T02:46:24.255Z,8.50
2018-09-10T02:48:52.497Z,8.47
2018-09-10T02:51:20.478Z,7.80
2018-09-10T02:53:48.638Z,8.63
2018-09-10T02:56:16.713Z,7.13
2018-09-10T02:58:44.855Z,8.30
2018-09-10T03:01:13.246Z,9.00
2018-09-10T03:03:41.768Z,8.87
2018-09-10T03:06:10.129Z,9.53
2018-09-10T03:08:38.657Z,9.20
2018-09-10T03:11:06.688Z,8.13
2018-09-10T03:13:34.829Z,9.60
2018-09-10T03:16:02.948Z,9.37
2018-09-10T03:18:30.929Z,8.17
2018-09-10T03:20:58.933Z,8.50
2018-09-10T03:23:26.956Z,9.30
2018-09-10T03:25:54.972Z,9.27
2018-09-10T03:28:22.939Z,8.40
2018-09-10T03:30:51.121Z,8.27
2018-09-10T03:33:19.381Z,9.00
2018-09-10T03:35:47.535Z,9.23
2018-09-10T03:38:15.695Z,8.57
2018-09-10T03:40:43.885Z,9.23
2018-09-10T03:43:12.372Z,8.33
2018-09-10T03:45:41.039Z,9.03
2018-09-10T03:48:09.340Z,10.40
2018-09-10T03:50:37.654Z,10.47
2018-09-10T03:53:05.797Z,8.40
2018-09-10T03:55:33.986Z,9.33
2018-09-10T03:58:02.209Z,9.00
2018-09-10T04:00:30.217Z,8.97
2018-09-10T04:02:58.250Z,8.90
2018-09-10T04:05:26.224Z,8.10
2018-09-10T04:07:54.214Z,9.30
2018-09-10T04:10:22.360Z,7.83
2018-09-10T04:12:50.345Z,7.60
2018-09-10T04:15:18.590Z,9.17
2018-09-10T04:17:46.692Z,7.90
2018-09-10T04:20:14.969Z,7.50
2018-09-10T04:22:43.241Z,7.47
2018-09-10T04:25:11.717Z,9.30
2018-09-10T04:27:40.275Z,11.03
2018-09-10T04:30:10.537Z,7.70
2018-09-10T04:32:39.029Z,8.23
2018-09-10T04:35:07.260Z,7.60
2018-09-10T04:37:35.469Z,7.73
2018-09-10T04:40:03.783Z,6.73
2018-09-10T04:42:31.773Z,7.50
2018-09-10T04:44:59.770Z,8.30
2018-09-10T04:47:27.752Z,7.70
2018-09-10T04:49:55.725Z,9.07
2018-09-10T04:52:23.729Z,7.57
2018-09-10T04:54:51.701Z,10.37
2018-09-10T04:57:19.973Z,9.63
2018-09-10T04:59:48.157Z,10.30
2018-09-10T05:02:16.339Z,9.97
2018-09-10T05:04:44.900Z,9.47
2018-09-10T05:07:13.128Z,9.40
2018-09-10T05:09:41.588Z,9.57
2018-09-10T05:12:09.886Z,9.50
2018-09-10T05:14:38.096Z,8.80
2018-09-10T05:17:06.417Z,8.67
2018-09-10T05:19:35.033Z,10.90
2018-09-10T05:22:04.010Z,9.90
2018-09-10T05:24:32.412Z,10.50
2018-09-10T05:27:00.594Z,12.07
2018-09-10T05:29:28.613Z,7.83
2018-09-10T05:31:56.600Z,8.67
2018-09-10T05:34:24.621Z,8.60
2018-09-10T05:36:52.743Z,9.13
2018-09-10T05:39:20.767Z,8.00
2018-09-10T05:41:55.361Z,8.53
2018-09-10T05:44:23.351Z,9.57
2018-09-10T05:46:51.615Z,10.43
2018-09-10T05:49:19.758Z,8.13
2018-09-10T05:51:48.011Z,8.40
2018-09-10T05:54:16.509Z,8.87
2018-09-10T05:56:44.922Z,9.90
2018-09-10T05:59:13.309Z,8.30
2018-09-10T06:01:41.933Z,7.97
2018-09-10T06:04:10.544Z,8.60
2018-09-10T06:06:38.924Z,9.00
2018-09-10T06:09:07.837Z,8.00
2018-09-10T06:11:35.965Z,6.73
2018-09-10T06:14:03.982Z,7.57
2018-09-10T06:16:32.037Z,7.30
2018-09-10T06:19:00.135Z,7.70
2018-09-10T06:21:28.373Z,8.17
2018-09-10T06:23:56.660Z,8.07
2018-09-10T06:26:24.922Z,8.63
2018-09-10T06:28:53.977Z,8.63
2018-09-10T06:31:22.240Z,8.30
2018-09-10T06:33:50.382Z,7.50
2018-09-10T06:36:18.719Z,7.80
2018-09-10T06:38:47.203Z,7.60
2018-09-10T06:41:15.642Z,7.57
2018-09-10T06:43:43.987Z,8.10
2018-09-10T06:46:12.632Z,8.77
2018-09-10T06:48:41.049Z,8.30
2018-09-10T06:51:10.032Z,6.80
2018-09-10T06:53:38.517Z,7.53
2018-09-10T06:56:07.045Z,7.67
2018-09-10T06:58:35.956Z,8.30
2018-09-10T07:01:04.506Z,8.13
2018-09-10T07:03:32.688Z,9.50
2018-09-10T07:06:00.888Z,8.80
2018-09-10T07:08:29.005Z,10.20
2018-09-10T07:10:57.197Z,11.50
2018-09-10T07:13:25.607Z,9.07
2018-09-10T07:15:53.608Z,9.00
2018-09-10T07:18:21.747Z,9.87
2018-09-10T07:20:50.152Z,9.30
2018-09-10T07:23:18.660Z,8.83
2018-09-10T07:25:46.959Z,7.80
2018-09-10T07:28:15.447Z,8.77
2018-09-10T07:30:43.843Z,7.83
2018-09-10T07:33:13.436Z,7.87
2018-09-10T07:35:42.460Z,8.83
2018-09-10T07:38:10.797Z,9.23
2018-09-10T07:40:39.811Z,7.33
2018-09-10T07:43:08.280Z,7.60
2018-09-10T07:45:36.653Z,8.27
2018-09-10T07:48:05.536Z,8.70
2018-09-10T07:50:33.893Z,6.70
2018-09-10T07:53:01.996Z,6.10
2018-09-10T07:55:30.775Z,7.30
2018-09-10T07:57:59.128Z,5.03
2018-09-10T08:00:27.413Z,5.70
2018-09-10T08:02:55.414Z,5.63
2018-09-10T08:05:23.729Z,6.07
2018-09-10T08:07:51.732Z,7.07
2018-09-10T08:10:20.049Z,5.93
2018-09-10T08:12:48.477Z,5.30
2018-09-10T08:15:16.857Z,6.00
2018-09-10T08:17:45.255Z,5.80
2018-09-10T08:20:13.842Z,4.90
2018-09-10T08:22:42.262Z,5.50
2018-09-10T08:25:11.044Z,4.90
2018-09-10T08:27:39.868Z,5.97
2018-09-10T08:30:08.094Z,5.37
2018-09-10T08:32:36.381Z,6.20
2018-09-10T08:35:06.280Z,5.77
2018-09-10T08:37:34.517Z,5.90
2018-09-10T08:40:02.642Z,5.47
2018-09-10T08:42:30.679Z,5.27
2018-09-10T08:44:58.933Z,6.03
2018-09-10T08:47:27.040Z,7.10
2018-09-10T08:49:55.173Z,5.67
2018-09-10T08:52:23.246Z,6.23
2018-09-10T08:54:51.787Z,6.13
2018-09-10T08:57:19.745Z,5.87
2018-09-10T08:59:48.192Z,5.70
2018-09-10T09:02:16.562Z,6.80
2018-09-10T09:04:44.957Z,5.43
2018-09-10T09:07:13.540Z,6.53
2018-09-10T09:09:42.179Z,4.80
2018-09-10T09:12:10.682Z,5.50
2018-09-10T09:14:38.902Z,6.37
2018-09-10T09:17:07.227Z,6.80
2018-09-10T09:19:35.540Z,5.80
2018-09-10T09:22:03.638Z,6.00
2018-09-10T09:24:31.948Z,5.57
2018-09-10T09:26:59.936Z,6.03
2018-09-10T09:29:28.038Z,5.83
2018-09-10T09:31:56.038Z,5.57
2018-09-10T09:34:24.358Z,4.50
2018-09-10T09:36:57.631Z,5.10
2018-09-10T09:39:31.145Z,5.50
2018-09-10T09:42:04.944Z,5.77
2018-09-10T09:44:38.269Z,6.93
2018-09-10T09:47:08.385Z,6.33
2018-09-10T09:49:37.162Z,5.40
2018-09-10T09:52:05.530Z,6.40
2018-09-10T09:54:34.327Z,5.57
2018-09-10T09:57:03.109Z,5.87
2018-09-10T09:59:31.531Z,5.73
2018-09-10T10:02:05.461Z,5.17
2018-09-10T10:04:33.756Z,6.43
2018-09-10T10:07:02.306Z,5.57
2018-09-10T10:12:05.971Z,5.00
2018-09-10T10:14:34.333Z,7.30
2018-09-10T10:17:02.460Z,5.70
2018-09-10T10:19:30.695Z,5.03
2018-09-10T10:21:59.282Z,4.93
2018-09-10T10:24:27.586Z,4.80
2018-09-10T10:26:56.266Z,6.03
2018-09-10T10:29:24.444Z,4.90
2018-09-10T10:31:53.301Z,5.50
2018-09-10T10:34:21.451Z,5.03
2018-09-10T10:36:50.454Z,5.33
2018-09-10T10:39:18.928Z,4.90
2018-09-10T10:41:47.464Z,5.40
2018-09-10T10:44:16.101Z,5.80
2018-09-10T10:46:44.373Z,4.43
2018-09-10T10:49:13.198Z,5.33
2018-09-10T10:51:41.776Z,5.03
2018-09-10T10:54:10.687Z,5.23
2018-09-10T10:56:39.408Z,4.53
2018-09-10T10:59:08.627Z,5.50
2018-09-10T11:01:37.736Z,6.07
2018-09-10T11:04:06.570Z,4.40
2018-09-10T11:06:35.169Z,5.33
2018-09-10T11:09:04.671Z,4.13
2018-09-10T11:11:33.208Z,5.50
2018-09-10T11:14:01.619Z,4.70
2018-09-10T11:16:30.026Z,4.73
2018-09-10T11:18:58.259Z,4.70
2018-09-10T11:21:27.652Z,4.90
2018-09-10T11:23:56.039Z,4.03
2018-09-10T11:26:24.140Z,4.80
2018-09-10T11:28:52.465Z,4.17
2018-09-10T11:31:20.813Z,4.80
2018-09-10T11:33:49.324Z,4.10
2018-09-10T11:36:18.146Z,4.33
2018-09-10T11:38:46.647Z,4.13
2018-09-10T11:41:15.317Z,4.90
2018-09-10T11:43:43.519Z,4.30
2018-09-10T11:46:12.231Z,4.53
2018-09-10T11:48:40.839Z,6.00
2018-09-10T11:51:09.668Z,5.03
2018-09-10T11:53:38.474Z,5.20
2018-09-10T11:56:07.675Z,5.33
2018-09-10T11:58:35.846Z,5.10
2018-09-10T12:01:03.964Z,4.83
2018-09-10T12:03:32.006Z,5.00
2018-09-10T12:06:00.160Z,4.43
2018-09-10T12:08:28.500Z,5.00
2018-09-10T12:10:56.563Z,5.00
2018-09-10T12:13:24.683Z,4.37
2018-09-10T12:15:52.744Z,4.67
2018-09-10T12:18:21.227Z,4.60
2018-09-10T12:20:49.512Z,4.13
2018-09-10T12:23:17.993Z,4.30
2018-09-10T12:25:46.311Z,4.50
2018-09-10T12:28:15.059Z,4.20
2018-09-10T12:30:43.646Z,4.30
2018-09-10T12:33:12.365Z,4.23
2018-09-10T12:35:41.036Z,4.03
2018-09-10T12:38:10.002Z,4.10
2018-09-10T12:40:38.900Z,4.43
2018-09-10T12:43:07.927Z,3.73
2018-09-10T12:45:43.059Z,3.43
2018-09-10T12:48:11.779Z,3.63
2018-09-10T12:50:40.263Z,3.53
2018-09-10T12:53:09.615Z,4.40
2018-09-10T12:55:38.771Z,8.00
2018-09-10T12:58:07.545Z,4.13
2018-09-10T13:00:36.210Z,3.83
2018-09-10T13:03:05.449Z,3.20
2018-09-10T13:05:34.237Z,3.17
2018-09-10T13:08:03.136Z,3.43
2018-09-10T13:10:31.385Z,3.40
2018-09-10T13:12:59.596Z,3.00
2018-09-10T13:15:27.855Z,3.43
2018-09-10T13:17:55.993Z,2.97
2018-09-10T13:20:24.213Z,2.90
2018-09-10T13:22:52.333Z,2.90
2018-09-10T13:25:20.337Z,4.27
2018-09-10T13:27:48.699Z,3.70
2018-09-10T13:30:17.253Z,3.50
2018-09-10T13:32:46.266Z,5.03
2018-09-10T13:35:14.932Z,15.80
2018-09-10T13:37:43.854Z,14.43
2018-09-10T13:40:12.251Z,4.10
2018-09-10T13:42:41.144Z,7.90
2018-09-10T13:45:10.069Z,6.70
2018-09-10T13:47:38.628Z,4.20
2018-09-10T13:50:07.011Z,5.17
2018-09-10T13:52:35.877Z,15.63
2018-09-10T13:55:04.362Z,5.77
2018-09-10T13:57:32.679Z,6.60
2018-09-10T14:00:01.057Z,4.70
2018-09-10T14:02:29.500Z,4.30
2018-09-10T14:04:57.725Z,12.30
2018-09-10T14:07:25.961Z,4.57
2018-09-10T14:09:54.005Z,5.60
2018-09-10T14:12:22.220Z,4.50
2018-09-10T14:14:50.477Z,4.27
2018-09-10T14:17:19.180Z,2.93
2018-09-10T14:19:47.886Z,3.23
2018-09-10T14:22:16.506Z,3.80
2018-09-10T14:24:45.022Z,4.07
2018-09-10T14:27:13.909Z,3.37
2018-09-10T14:29:42.593Z,3.60
2018-09-10T14:32:11.671Z,4.10
2018-09-10T14:34:40.265Z,3.63
2018-09-10T14:37:10.149Z,3.17
2018-09-10T14:39:39.032Z,4.47
2018-09-10T14:42:08.157Z,2.80
2018-09-10T14:44:37.021Z,2.57
2018-09-10T14:47:05.408Z,3.60
2018-09-10T14:49:34.099Z,4.97
2018-09-10T14:52:02.537Z,3.67
2018-09-10T14:54:30.805Z,5.00
2018-09-10T14:56:59.018Z,3.80
2018-09-10T14:59:27.426Z,3.70
2018-09-10T15:01:55.584Z,2.63
2018-09-10T15:04:23.823Z,3.80
2018-09-10T15:06:52.317Z,3.00
2018-09-10T15:09:20.488Z,3.80
2018-09-10T15:11:49.110Z,3.87
2018-09-10T15:14:17.536Z,3.23
2018-09-10T15:16:46.113Z,3.20
2018-09-10T15:19:14.672Z,4.00
2018-09-10T15:21:43.358Z,4.00
2018-09-10T15:24:11.666Z,3.47
2018-09-10T15:26:40.527Z,4.60
2018-09-10T15:29:09.235Z,4.47
2018-09-10T15:31:38.013Z,3.93
2018-09-10T15:34:06.853Z,4.40
2018-09-10T15:36:35.650Z,3.40
2018-09-10T15:39:04.400Z,4.20
2018-09-10T15:41:33.255Z,4.80
2018-09-10T15:44:01.918Z,3.03
2018-09-10T15:46:30.332Z,4.70
2018-09-10T15:48:58.413Z,4.20
2018-09-10T15:51:32.760Z,3.80
2018-09-10T15:54:01.491Z,3.40
2018-09-10T15:56:30.373Z,4.10
2018-09-10T15:58:58.503Z,3.43
2018-09-10T16:01:26.779Z,4.00
2018-09-10T16:03:55.534Z,3.40
2018-09-10T16:06:23.763Z,4.03
2018-09-10T16:08:52.089Z,4.20
2018-09-10T16:11:20.680Z,4.40
2018-09-10T16:13:49.365Z,3.97
2018-09-10T16:16:18.000Z,4.40
2018-09-10T16:18:46.260Z,4.40
2018-09-10T16:21:15.252Z,4.07
2018-09-10T16:23:43.957Z,3.70
2018-09-10T16:26:12.809Z,4.70
2018-09-10T16:28:41.757Z,4.80
2018-09-10T16:31:10.461Z,3.50
2018-09-10T16:33:39.304Z,4.57
2018-09-10T16:36:07.625Z,3.63
2018-09-10T16:38:36.057Z,5.10
2018-09-10T16:41:04.617Z,3.63
2018-09-10T16:43:33.252Z,3.23
2018-09-10T16:46:01.969Z,5.43
2018-09-10T16:48:30.196Z,3.97
2018-09-10T16:50:58.337Z,4.10
2018-09-10T16:53:26.729Z,3.43
2018-09-10T16:55:54.872Z,4.10
2018-09-10T16:58:23.062Z,4.37
2018-09-10T17:00:51.269Z,5.27
2018-09-10T17:03:19.528Z,4.50
2018-09-10T17:05:47.903Z,3.57
2018-09-10T17:08:16.276Z,3.77
2018-09-10T17:10:45.249Z,4.50
2018-09-10T17:13:14.023Z,4.37
2018-09-10T17:15:43.031Z,4.40
2018-09-10T17:18:11.949Z,4.10
2018-09-10T17:20:40.675Z,4.27
2018-09-10T17:23:09.160Z,5.37
2018-09-10T17:25:37.529Z,6.60
2018-09-10T17:28:05.984Z,5.00
2018-09-10T17:30:41.014Z,5.93
2018-09-10T17:33:10.373Z,5.47
2018-09-10T17:35:38.843Z,5.67
2018-09-10T17:38:07.216Z,5.27
2018-09-10T17:40:35.978Z,4.63
2018-09-10T17:43:04.078Z,6.87
2018-09-10T17:45:32.469Z,6.07
2018-09-10T17:48:00.710Z,7.13
2018-09-10T17:50:28.946Z,6.50
2018-09-10T17:52:56.958Z,6.10
2018-09-10T17:55:25.181Z,5.77
2018-09-10T17:57:53.556Z,6.00
2018-09-10T18:00:21.658Z,4.93
2018-09-10T18:02:49.880Z,5.03
2018-09-10T18:05:18.271Z,6.20
2018-09-10T18:07:46.681Z,7.30
2018-09-10T18:10:15.074Z,5.07
2018-09-10T18:12:43.953Z,6.27
2018-09-10T18:15:12.712Z,6.40
2018-09-10T18:17:41.397Z,5.97
2018-09-10T18:20:10.013Z,6.70
2018-09-10T18:22:38.761Z,5.07
2018-09-10T18:25:07.198Z,5.17
2018-09-10T18:27:35.497Z,5.40
2018-09-10T18:30:03.980Z,5.33
2018-09-10T18:32:32.162Z,5.30
2018-09-10T18:35:00.360Z,5.57
2018-09-10T18:37:28.429Z,6.63
2018-09-10T18:39:56.677Z,5.63
2018-09-10T18:42:24.793Z,7.83
2018-09-10T18:44:52.846Z,6.00
2018-09-10T18:47:20.874Z,6.60
2018-09-10T18:49:49.290Z,7.57
2018-09-10T18:52:17.902Z,6.63
2018-09-10T18:54:46.359Z,7.60
2018-09-10T18:57:15.000Z,7.50
2018-09-10T18:59:49.362Z,6.80
2018-09-10T19:02:17.649Z,7.07
2018-09-10T19:04:45.964Z,7.27
2018-09-10T19:07:14.643Z,6.77
2018-09-10T19:09:43.539Z,6.70
2018-09-10T19:12:12.352Z,6.00
2018-09-10T19:14:41.103Z,5.90
2018-09-10T19:17:11.234Z,6.07
2018-09-10T19:19:40.869Z,7.30
2018-09-10T19:22:09.719Z,5.10
2018-09-10T19:24:38.545Z,6.20
2018-09-10T19:27:06.973Z,5.40
2018-09-10T19:29:36.150Z,5.70
2018-09-10T19:32:04.374Z,5.70
2018-09-10T19:34:32.583Z,5.80
2018-09-10T19:37:00.904Z,5.57
2018-09-10T19:39:28.970Z,6.13
2018-09-10T19:41:57.440Z,5.97
2018-09-10T19:44:25.469Z,6.30
2018-09-10T19:46:53.549Z,6.03
2018-09-10T19:49:21.579Z,5.63
2018-09-10T19:51:49.798Z,6.27
2018-09-10T19:54:18.141Z,5.93
2018-09-10T19:56:46.900Z,5.10
2018-09-10T19:59:15.683Z,6.53
2018-09-10T20:01:44.340Z,5.77
2018-09-10T20:04:12.827Z,5.37
2018-09-10T20:06:41.460Z,5.80
2018-09-10T20:09:11.124Z,7.07
2018-09-10T20:11:39.835Z,6.47
2018-09-10T20:14:08.387Z,6.27
2018-09-10T20:16:36.429Z,5.90
2018-09-10T20:19:04.905Z,5.83
2018-09-10T20:21:33.176Z,5.73
2018-09-10T20:24:01.218Z,5.70
2018-09-10T20:26:29.568Z,5.70
2018-09-10T20:28:57.524Z,5.50
2018-09-10T20:31:25.832Z,5.53
2018-09-10T20:33:59.056Z,5.10
2018-09-10T20:36:27.059Z,5.13
2018-09-10T20:38:55.118Z,5.60
2018-09-10T20:41:23.210Z,4.93
2018-09-10T20:43:51.396Z,4.80
2018-09-10T20:46:19.894Z,5.60
2018-09-10T20:48:48.099Z,5.53
2018-09-10T20:51:16.460Z,4.93
2018-09-10T20:53:45.012Z,4.30
2018-09-10T20:56:13.206Z,3.97
2018-09-10T20:58:41.798Z,4.13
2018-09-10T21:01:10.533Z,3.60
2018-09-10T21:03:39.615Z,4.20
2018-09-10T21:06:08.348Z,4.60
2018-09-10T21:08:36.646Z,3.70
2018-09-10T21:11:05.829Z,3.57
2018-09-10T21:13:33.893Z,3.97
2018-09-10T21:16:02.102Z,4.17
2018-09-10T21:18:30.100Z,3.70
2018-09-10T21:20:58.073Z,4.20
2018-09-10T21:23:26.110Z,3.10
2018-09-10T21:25:54.218Z,3.40
2018-09-10T21:28:22.417Z,4.03
2018-09-10T21:30:50.433Z,3.87
2018-09-10T21:33:18.639Z,4.33
2018-09-10T21:35:47.178Z,4.23
2018-09-10T21:38:15.562Z,3.77
2018-09-10T21:40:44.126Z,4.43
2018-09-10T21:43:13.113Z,4.17
2018-09-10T21:45:41.453Z,3.90
2018-09-10T21:48:10.091Z,3.93
2018-09-10T21:50:38.377Z,4.30
2018-09-10T21:53:06.546Z,3.77
2018-09-10T21:55:35.676Z,5.23
2018-09-10T21:58:03.865Z,4.67
2018-09-10T22:00:31.900Z,4.33
2018-09-10T22:02:59.869Z,4.50
2018-09-10T22:05:27.898Z,4.30
2018-09-10T22:07:56.107Z,4.13
2018-09-10T22:10:24.156Z,4.17
2018-09-10T22:12:52.272Z,3.90
2018-09-10T22:15:20.836Z,3.67
2018-09-10T22:17:49.146Z,4.47
2018-09-10T22:20:23.408Z,4.27
2018-09-10T22:22:51.418Z,3.87
2018-09-10T22:25:19.666Z,3.20
2018-09-10T22:27:47.895Z,3.80
2018-09-10T22:30:16.173Z,3.70
2018-09-10T22:32:44.717Z,4.20
2018-09-10T22:35:13.292Z,3.70
2018-09-10T22:37:42.242Z,3.80
2018-09-10T22:40:10.965Z,3.70
2018-09-10T22:42:40.385Z,3.60
2018-09-10T22:45:08.850Z,5.50
2018-09-10T22:47:36.955Z,3.67
2018-09-10T22:50:05.591Z,3.60
2018-09-10T22:52:33.925Z,3.87
2018-09-10T22:55:02.570Z,4.17
2018-09-10T22:57:30.877Z,3.77
2018-09-10T22:59:58.948Z,4.07
2018-09-10T23:02:26.965Z,4.93
2018-09-10T23:04:55.004Z,4.03
2018-09-10T23:07:23.070Z,3.90
2018-09-10T23:09:51.317Z,3.97
2018-09-10T23:12:19.841Z,3.80
2018-09-10T23:14:48.178Z,3.50
2018-09-10T23:17:16.737Z,4.00
2018-09-10T23:19:45.167Z,3.57
2018-09-10T23:22:14.280Z,4.03
2018-09-10T23:24:42.775Z,4.03
2018-09-10T23:27:11.145Z,4.67
2018-09-10T23:29:39.781Z,3.60
2018-09-10T23:32:08.169Z,3.93
2018-09-10T23:34:36.195Z,3.70
2018-09-10T23:37:04.317Z,4.50
2018-09-10T23:39:32.308Z,4.13
2018-09-10T23:42:06.700Z,3.40
2018-09-10T23:44:34.697Z,4.30
2018-09-10T23:47:02.645Z,3.60
2018-09-10T23:49:30.596Z,3.30
2018-09-10T23:51:58.564Z,3.80
2018-09-10T23:54:26.576Z,3.67
2018-09-10T23:56:54.582Z,3.40
2018-09-10T23:59:22.522Z,3.90
